sensor_id;sensor_type;location;lat;lon;timestamp;pressure;altitude;pressure_sealevel;temperature;humidity
11347;BME280;5728;42.722;23.258;2023-04-22T00:00:28;94441.97;;;8.25;97.53
11347;BME280;5728;42.722;23.258;2023-04-22T00:02:54;94435.56;;;8.57;96.52
11347;BME280;5728;42.722;23.258;2023-04-22T00:05:21;94438.69;;;8.80;96.46
11347;BME280;5728;42.722;23.258;2023-04-22T00:07:49;94444.81;;;8.74;95.77
11347;BME280;5728;42.722;23.258;2023-04-22T00:10:16;94433.31;;;8.95;95.20
11347;BME280;5728;42.722;23.258;2023-04-22T00:12:43;94445.00;;;9.20;94.87
11347;BME280;5728;42.722;23.258;2023-04-22T00:15:10;94442.38;;;9.23;94.59
11347;BME280;5728;42.722;23.258;2023-04-22T00:17:37;94442.72;;;9.52;94.12
11347;BME280;5728;42.722;23.258;2023-04-22T00:20:05;94439.03;;;9.69;92.13
11347;BME280;5728;42.722;23.258;2023-04-22T00:22:32;94439.78;;;9.74;90.84
11347;BME280;5728;42.722;23.258;2023-04-22T00:25:00;94447.28;;;9.89;89.53
11347;BME280;5728;42.722;23.258;2023-04-22T00:27:27;94442.88;;;9.94;88.46
11347;BME280;5728;42.722;23.258;2023-04-22T00:29:54;94443.78;;;9.90;88.87
11347;BME280;5728;42.722;23.258;2023-04-22T00:32:20;94443.88;;;9.85;87.87
11347;BME280;5728;42.722;23.258;2023-04-22T00:34:47;94456.19;;;9.73;90.15
11347;BME280;5728;42.722;23.258;2023-04-22T00:37:14;94453.19;;;9.95;90.52
11347;BME280;5728;42.722;23.258;2023-04-22T00:39:41;94443.97;;;9.81;89.34
11347;BME280;5728;42.722;23.258;2023-04-22T00:42:10;94442.91;;;9.43;88.64
11347;BME280;5728;42.722;23.258;2023-04-22T00:44:37;94450.44;;;9.02;89.16
11347;BME280;5728;42.722;23.258;2023-04-22T00:47:06;94443.56;;;9.01;89.91
11347;BME280;5728;42.722;23.258;2023-04-22T00:49:34;94445.81;;;9.22;89.03
11347;BME280;5728;42.722;23.258;2023-04-22T00:52:01;94443.22;;;9.22;87.98
11347;BME280;5728;42.722;23.258;2023-04-22T00:54:28;94445.63;;;8.78;89.06
11347;BME280;5728;42.722;23.258;2023-04-22T00:56:55;94449.09;;;8.74;89.62
11347;BME280;5728;42.722;23.258;2023-04-22T00:59:25;94451.38;;;8.32;91.00
11347;BME280;5728;42.722;23.258;2023-04-22T01:01:52;94448.03;;;8.21;91.87
11347;BME280;5728;42.722;23.258;2023-04-22T01:04:20;94463.88;;;7.88;94.52
11347;BME280;5728;42.722;23.258;2023-04-22T01:06:47;94464.38;;;8.28;94.38
11347;BME280;5728;42.722;23.258;2023-04-22T01:09:15;94458.31;;;8.30;93.22
11347;BME280;5728;42.722;23.258;2023-04-22T01:11:44;94460.25;;;8.07;93.97
11347;BME280;5728;42.722;23.258;2023-04-22T01:14:11;94455.38;;;8.58;95.03
11347;BME280;5728;42.722;23.258;2023-04-22T01:16:41;94452.38;;;8.88;91.98
11347;BME280;5728;42.722;23.258;2023-04-22T01:19:09;94451.94;;;8.57;91.90
11347;BME280;5728;42.722;23.258;2023-04-22T01:21:37;94457.66;;;8.79;92.12
11347;BME280;5728;42.722;23.258;2023-04-22T01:24:07;94452.97;;;8.43;91.75
11347;BME280;5728;42.722;23.258;2023-04-22T01:26:35;94455.09;;;8.07;91.88
11347;BME280;5728;42.722;23.258;2023-04-22T01:29:03;94458.69;;;7.91;92.40
11347;BME280;5728;42.722;23.258;2023-04-22T01:31:30;94463.88;;;7.90;93.00
11347;BME280;5728;42.722;23.258;2023-04-22T01:33:57;94449.91;;;8.10;93.11
11347;BME280;5728;42.722;23.258;2023-04-22T01:36:24;94464.47;;;8.14;92.26
11347;BME280;5728;42.722;23.258;2023-04-22T01:38:51;94462.84;;;8.06;93.84
11347;BME280;5728;42.722;23.258;2023-04-22T01:41:19;94462.09;;;7.96;95.33
11347;BME280;5728;42.722;23.258;2023-04-22T01:43:47;94467.16;;;8.04;95.19
11347;BME280;5728;42.722;23.258;2023-04-22T01:46:15;94444.97;;;7.89;92.94
11347;BME280;5728;42.722;23.258;2023-04-22T01:48:42;94461.22;;;7.96;94.10
11347;BME280;5728;42.722;23.258;2023-04-22T01:51:15;94458.44;;;8.15;95.01
11347;BME280;5728;42.722;23.258;2023-04-22T01:53:42;94453.28;;;8.15;94.96
11347;BME280;5728;42.722;23.258;2023-04-22T01:56:08;94456.56;;;8.32;95.39
11347;BME280;5728;42.722;23.258;2023-04-22T01:58:38;94446.13;;;8.40;94.48
11347;BME280;5728;42.722;23.258;2023-04-22T02:01:05;94454.75;;;8.41;93.93
11347;BME280;5728;42.722;23.258;2023-04-22T02:03:31;94449.41;;;8.53;92.15
11347;BME280;5728;42.722;23.258;2023-04-22T02:05:58;94480.94;;;8.04;91.65
11347;BME280;5728;42.722;23.258;2023-04-22T02:08:25;94448.78;;;7.52;93.08
11347;BME280;5728;42.722;23.258;2023-04-22T02:10:52;94449.03;;;7.22;95.41
11347;BME280;5728;42.722;23.258;2023-04-22T02:13:18;94442.38;;;6.93;97.69
11347;BME280;5728;42.722;23.258;2023-04-22T02:15:47;94449.88;;;7.21;98.47
11347;BME280;5728;42.722;23.258;2023-04-22T02:18:14;94452.56;;;7.08;97.96
11347;BME280;5728;42.722;23.258;2023-04-22T02:20:42;94457.59;;;7.27;97.84
11347;BME280;5728;42.722;23.258;2023-04-22T02:23:09;94449.66;;;7.48;95.72
11347;BME280;5728;42.722;23.258;2023-04-22T02:25:36;94449.81;;;7.31;96.37
11347;BME280;5728;42.722;23.258;2023-04-22T02:28:03;94448.81;;;7.47;96.50
11347;BME280;5728;42.722;23.258;2023-04-22T02:30:30;94446.38;;;7.32;96.78
11347;BME280;5728;42.722;23.258;2023-04-22T02:32:58;94454.97;;;7.28;96.76
11347;BME280;5728;42.722;23.258;2023-04-22T02:35:25;94461.84;;;7.28;96.94
11347;BME280;5728;42.722;23.258;2023-04-22T02:37:52;94455.94;;;7.17;97.11
11347;BME280;5728;42.722;23.258;2023-04-22T02:40:19;94449.78;;;7.34;97.21
11347;BME280;5728;42.722;23.258;2023-04-22T02:42:46;94453.22;;;7.36;96.72
11347;BME280;5728;42.722;23.258;2023-04-22T02:45:13;94458.53;;;7.17;97.29
11347;BME280;5728;42.722;23.258;2023-04-22T02:47:40;94467.00;;;7.31;97.22
11347;BME280;5728;42.722;23.258;2023-04-22T02:50:09;94467.75;;;7.45;96.69
11347;BME280;5728;42.722;23.258;2023-04-22T02:52:36;94458.88;;;7.75;95.78
11347;BME280;5728;42.722;23.258;2023-04-22T02:55:03;94465.50;;;7.98;94.70
11347;BME280;5728;42.722;23.258;2023-04-22T02:57:30;94470.91;;;7.74;94.23
11347;BME280;5728;42.722;23.258;2023-04-22T02:59:57;94468.59;;;7.45;94.68
11347;BME280;5728;42.722;23.258;2023-04-22T03:02:24;94465.38;;;7.19;95.10
11347;BME280;5728;42.722;23.258;2023-04-22T03:04:51;94475.03;;;6.88;96.07
11347;BME280;5728;42.722;23.258;2023-04-22T03:07:21;94469.22;;;6.56;96.46
11347;BME280;5728;42.722;23.258;2023-04-22T03:09:47;94470.16;;;6.40;97.87
11347;BME280;5728;42.722;23.258;2023-04-22T03:12:14;94470.28;;;6.10;98.64
11347;BME280;5728;42.722;23.258;2023-04-22T03:14:41;94475.38;;;6.25;100.00
11347;BME280;5728;42.722;23.258;2023-04-22T03:17:08;94477.09;;;6.17;100.00
11347;BME280;5728;42.722;23.258;2023-04-22T03:19:34;94478.00;;;6.13;100.00
11347;BME280;5728;42.722;23.258;2023-04-22T03:22:01;94472.75;;;6.29;100.00
11347;BME280;5728;42.722;23.258;2023-04-22T03:24:29;94476.13;;;6.45;100.00
11347;BME280;5728;42.722;23.258;2023-04-22T03:26:56;94474.19;;;6.86;100.00
11347;BME280;5728;42.722;23.258;2023-04-22T03:29:22;94473.22;;;7.04;100.00
11347;BME280;5728;42.722;23.258;2023-04-22T03:31:49;94469.75;;;7.10;99.81
11347;BME280;5728;42.722;23.258;2023-04-22T03:34:16;94480.09;;;7.03;98.91
11347;BME280;5728;42.722;23.258;2023-04-22T03:36:43;94477.53;;;7.02;98.71
11347;BME280;5728;42.722;23.258;2023-04-22T03:39:09;94486.03;;;7.16;98.81
11347;BME280;5728;42.722;23.258;2023-04-22T03:41:37;94489.41;;;7.24;98.60
11347;BME280;5728;42.722;23.258;2023-04-22T03:44:04;94486.25;;;6.81;99.32
11347;BME280;5728;42.722;23.258;2023-04-22T03:46:31;94493.66;;;7.30;99.20
11347;BME280;5728;42.722;23.258;2023-04-22T03:48:58;94491.72;;;7.57;97.28
11347;BME280;5728;42.722;23.258;2023-04-22T03:51:25;94497.91;;;7.40;96.82
11347;BME280;5728;42.722;23.258;2023-04-22T03:53:51;94495.09;;;7.64;99.02
11347;BME280;5728;42.722;23.258;2023-04-22T03:56:18;94496.53;;;7.95;99.94
11347;BME280;5728;42.722;23.258;2023-04-22T03:58:46;94496.28;;;8.19;99.03
11347;BME280;5728;42.722;23.258;2023-04-22T04:01:13;94500.50;;;8.29;98.33
11347;BME280;5728;42.722;23.258;2023-04-22T04:03:40;94500.03;;;8.67;97.14
11347;BME280;5728;42.722;23.258;2023-04-22T04:06:07;94511.25;;;8.68;94.31
11347;BME280;5728;42.722;23.258;2023-04-22T04:08:34;94500.78;;;8.78;93.05
11347;BME280;5728;42.722;23.258;2023-04-22T04:11:00;94502.38;;;8.87;95.11
11347;BME280;5728;42.722;23.258;2023-04-22T04:13:27;94503.19;;;8.90;94.60
11347;BME280;5728;42.722;23.258;2023-04-22T04:15:58;94497.34;;;8.75;94.01
11347;BME280;5728;42.722;23.258;2023-04-22T04:18:26;94513.59;;;8.84;90.76
11347;BME280;5728;42.722;23.258;2023-04-22T04:20:54;94509.34;;;8.79;90.50
11347;BME280;5728;42.722;23.258;2023-04-22T04:23:20;94520.88;;;9.19;90.86
11347;BME280;5728;42.722;23.258;2023-04-22T04:25:47;94510.31;;;9.34;92.88
11347;BME280;5728;42.722;23.258;2023-04-22T04:28:15;94523.88;;;9.51;92.65
11347;BME280;5728;42.722;23.258;2023-04-22T04:30:42;94517.72;;;9.58;91.99
11347;BME280;5728;42.722;23.258;2023-04-22T04:33:10;94515.06;;;9.61;91.03
11347;BME280;5728;42.722;23.258;2023-04-22T04:35:38;94503.47;;;9.30;88.80
11347;BME280;5728;42.722;23.258;2023-04-22T04:38:06;94521.72;;;9.21;87.53
11347;BME280;5728;42.722;23.258;2023-04-22T04:40:33;94530.41;;;9.74;91.28
11347;BME280;5728;42.722;23.258;2023-04-22T04:43:00;94530.66;;;10.09;91.88
11347;BME280;5728;42.722;23.258;2023-04-22T04:45:29;94524.91;;;9.93;87.27
11347;BME280;5728;42.722;23.258;2023-04-22T04:47:55;94533.25;;;9.57;85.99
11347;BME280;5728;42.722;23.258;2023-04-22T04:50:24;94545.97;;;9.71;86.72
11347;BME280;5728;42.722;23.258;2023-04-22T04:52:52;94534.44;;;10.40;86.06
11347;BME280;5728;42.722;23.258;2023-04-22T04:55:20;94556.94;;;10.84;84.32
11347;BME280;5728;42.722;23.258;2023-04-22T04:57:47;94542.38;;;10.75;84.61
11347;BME280;5728;42.722;23.258;2023-04-22T05:00:14;94534.25;;;10.94;83.11
11347;BME280;5728;42.722;23.258;2023-04-22T05:02:41;94553.00;;;11.06;80.40
11347;BME280;5728;42.722;23.258;2023-04-22T05:05:08;94541.97;;;11.36;78.67
11347;BME280;5728;42.722;23.258;2023-04-22T05:07:37;94566.47;;;11.25;77.30
11347;BME280;5728;42.722;23.258;2023-04-22T05:10:04;94536.19;;;11.24;79.52
11347;BME280;5728;42.722;23.258;2023-04-22T05:12:31;94553.63;;;11.57;79.72
11347;BME280;5728;42.722;23.258;2023-04-22T05:14:58;94554.25;;;11.68;79.42
11347;BME280;5728;42.722;23.258;2023-04-22T05:17:25;94551.28;;;11.85;78.03
11347;BME280;5728;42.722;23.258;2023-04-22T05:19:52;94548.50;;;12.26;76.14
11347;BME280;5728;42.722;23.258;2023-04-22T05:22:20;94543.69;;;12.45;75.65
11347;BME280;5728;42.722;23.258;2023-04-22T05:24:49;94553.94;;;12.51;74.34
11347;BME280;5728;42.722;23.258;2023-04-22T05:27:16;94548.75;;;12.51;74.48
11347;BME280;5728;42.722;23.258;2023-04-22T05:29:43;94554.63;;;12.57;75.31
11347;BME280;5728;42.722;23.258;2023-04-22T05:32:10;94567.53;;;12.28;76.09
11347;BME280;5728;42.722;23.258;2023-04-22T05:34:37;94555.69;;;12.49;76.39
11347;BME280;5728;42.722;23.258;2023-04-22T05:37:04;94558.41;;;12.78;74.48
11347;BME280;5728;42.722;23.258;2023-04-22T05:39:32;94549.03;;;12.39;72.92
11347;BME280;5728;42.722;23.258;2023-04-22T05:42:00;94567.81;;;12.50;73.63
11347;BME280;5728;42.722;23.258;2023-04-22T05:44:27;94565.31;;;13.11;77.11
11347;BME280;5728;42.722;23.258;2023-04-22T05:46:58;94581.03;;;13.94;79.32
11347;BME280;5728;42.722;23.258;2023-04-22T05:49:28;94578.88;;;14.07;70.24
11347;BME280;5728;42.722;23.258;2023-04-22T05:51:56;94560.94;;;14.24;69.69
11347;BME280;5728;42.722;23.258;2023-04-22T05:54:22;94558.66;;;14.41;72.19
11347;BME280;5728;42.722;23.258;2023-04-22T05:56:49;94554.72;;;14.54;73.21
11347;BME280;5728;42.722;23.258;2023-04-22T05:59:17;94554.84;;;14.51;67.61
11347;BME280;5728;42.722;23.258;2023-04-22T06:01:44;94559.88;;;14.31;67.15
11347;BME280;5728;42.722;23.258;2023-04-22T06:04:11;94559.22;;;14.23;67.38
11347;BME280;5728;42.722;23.258;2023-04-22T06:06:38;94554.31;;;14.40;67.29
11347;BME280;5728;42.722;23.258;2023-04-22T06:09:05;94555.34;;;14.62;65.17
11347;BME280;5728;42.722;23.258;2023-04-22T06:11:31;94553.09;;;14.52;64.73
11347;BME280;5728;42.722;23.258;2023-04-22T06:13:58;94552.13;;;14.79;65.69
11347;BME280;5728;42.722;23.258;2023-04-22T06:16:27;94563.47;;;15.26;63.28
11347;BME280;5728;42.722;23.258;2023-04-22T06:18:54;94549.66;;;15.47;62.63
11347;BME280;5728;42.722;23.258;2023-04-22T06:21:21;94557.69;;;15.18;62.94
11347;BME280;5728;42.722;23.258;2023-04-22T06:23:47;94558.72;;;15.37;63.42
11347;BME280;5728;42.722;23.258;2023-04-22T06:26:14;94551.19;;;15.53;63.58
11347;BME280;5728;42.722;23.258;2023-04-22T06:28:41;94564.94;;;15.79;63.72
11347;BME280;5728;42.722;23.258;2023-04-22T06:31:08;94548.28;;;16.04;62.82
11347;BME280;5728;42.722;23.258;2023-04-22T06:33:36;94549.28;;;16.23;61.96
11347;BME280;5728;42.722;23.258;2023-04-22T06:36:04;94564.91;;;16.03;62.59
11347;BME280;5728;42.722;23.258;2023-04-22T06:38:31;94571.81;;;16.69;61.49
11347;BME280;5728;42.722;23.258;2023-04-22T06:40:58;94550.25;;;16.62;60.83
11347;BME280;5728;42.722;23.258;2023-04-22T06:43:25;94557.56;;;16.54;61.44
11347;BME280;5728;42.722;23.258;2023-04-22T06:45:52;94558.31;;;16.36;61.25
11347;BME280;5728;42.722;23.258;2023-04-22T06:48:19;94562.16;;;16.27;61.79
11347;BME280;5728;42.722;23.258;2023-04-22T06:50:47;94562.44;;;16.41;61.57
11347;BME280;5728;42.722;23.258;2023-04-22T06:53:14;94564.19;;;16.21;61.20
11347;BME280;5728;42.722;23.258;2023-04-22T06:55:41;94559.81;;;16.63;61.57
11347;BME280;5728;42.722;23.258;2023-04-22T06:58:08;94569.75;;;16.55;60.05
11347;BME280;5728;42.722;23.258;2023-04-22T07:00:35;94568.72;;;16.79;59.29
11347;BME280;5728;42.722;23.258;2023-04-22T07:03:02;94563.31;;;17.04;60.98
11347;BME280;5728;42.722;23.258;2023-04-22T07:05:29;94572.47;;;16.94;59.98
11347;BME280;5728;42.722;23.258;2023-04-22T07:07:57;94564.66;;;16.92;59.52
11347;BME280;5728;42.722;23.258;2023-04-22T07:10:24;94572.03;;;15.76;61.81
11347;BME280;5728;42.722;23.258;2023-04-22T07:12:51;94577.78;;;16.29;61.62
11347;BME280;5728;42.722;23.258;2023-04-22T07:15:18;94567.91;;;16.79;61.92
11347;BME280;5728;42.722;23.258;2023-04-22T07:17:44;94572.94;;;17.03;59.46
11347;BME280;5728;42.722;23.258;2023-04-22T07:20:11;94561.34;;;16.47;61.46
11347;BME280;5728;42.722;23.258;2023-04-22T07:22:38;94568.59;;;16.62;61.09
11347;BME280;5728;42.722;23.258;2023-04-22T07:25:06;94567.03;;;16.78;60.88
11347;BME280;5728;42.722;23.258;2023-04-22T07:27:34;94564.63;;;17.33;59.58
11347;BME280;5728;42.722;23.258;2023-04-22T07:30:01;94566.53;;;17.68;58.20
11347;BME280;5728;42.722;23.258;2023-04-22T07:32:28;94560.25;;;18.26;57.25
11347;BME280;5728;42.722;23.258;2023-04-22T07:34:55;94560.41;;;18.23;56.52
11347;BME280;5728;42.722;23.258;2023-04-22T07:37:21;94567.63;;;18.18;55.42
11347;BME280;5728;42.722;23.258;2023-04-22T07:39:48;94563.66;;;18.45;55.27
11347;BME280;5728;42.722;23.258;2023-04-22T07:42:16;94557.56;;;18.64;56.00
11347;BME280;5728;42.722;23.258;2023-04-22T07:44:43;94560.34;;;18.95;55.41
11347;BME280;5728;42.722;23.258;2023-04-22T07:47:10;94560.72;;;19.04;52.63
11347;BME280;5728;42.722;23.258;2023-04-22T07:49:38;94557.88;;;18.75;51.91
11347;BME280;5728;42.722;23.258;2023-04-22T07:52:05;94564.31;;;18.51;53.28
11347;BME280;5728;42.722;23.258;2023-04-22T07:54:32;94549.03;;;18.76;52.80
11347;BME280;5728;42.722;23.258;2023-04-22T07:56:59;94566.13;;;17.77;54.32
11347;BME280;5728;42.722;23.258;2023-04-22T07:59:27;94571.22;;;16.82;55.15
11347;BME280;5728;42.722;23.258;2023-04-22T08:01:54;94559.06;;;17.20;56.10
11347;BME280;5728;42.722;23.258;2023-04-22T08:04:22;94540.69;;;17.21;55.41
11347;BME280;5728;42.722;23.258;2023-04-22T08:06:48;94553.63;;;18.36;53.99
11347;BME280;5728;42.722;23.258;2023-04-22T08:09:15;94549.69;;;17.92;50.15
11347;BME280;5728;42.722;23.258;2023-04-22T08:11:42;94545.09;;;18.14;50.75
11347;BME280;5728;42.722;23.258;2023-04-22T08:14:08;94572.47;;;18.27;49.11
11347;BME280;5728;42.722;23.258;2023-04-22T08:16:40;94546.59;;;18.20;50.93
11347;BME280;5728;42.722;23.258;2023-04-22T08:19:07;94543.75;;;18.06;51.96
11347;BME280;5728;42.722;23.258;2023-04-22T08:21:33;94547.50;;;18.72;50.53
11347;BME280;5728;42.722;23.258;2023-04-22T08:24:01;94539.41;;;19.76;52.01
11347;BME280;5728;42.722;23.258;2023-04-22T08:26:28;94544.16;;;20.01;47.25
11347;BME280;5728;42.722;23.258;2023-04-22T08:28:54;94546.88;;;18.84;48.39
11347;BME280;5728;42.722;23.258;2023-04-22T08:31:21;94544.47;;;19.79;49.57
11347;BME280;5728;42.722;23.258;2023-04-22T08:33:50;94531.16;;;20.13;47.66
11347;BME280;5728;42.722;23.258;2023-04-22T08:36:16;94530.63;;;20.54;45.95
11347;BME280;5728;42.722;23.258;2023-04-22T08:38:46;94530.72;;;20.21;44.38
11347;BME280;5728;42.722;23.258;2023-04-22T08:41:13;94529.28;;;20.76;43.67
11347;BME280;5728;42.722;23.258;2023-04-22T08:43:40;94529.59;;;20.86;44.16
11347;BME280;5728;42.722;23.258;2023-04-22T08:46:09;94522.34;;;20.60;43.84
11347;BME280;5728;42.722;23.258;2023-04-22T08:48:36;94514.16;;;21.24;46.24
11347;BME280;5728;42.722;23.258;2023-04-22T08:51:05;94516.50;;;21.14;42.39
11347;BME280;5728;42.722;23.258;2023-04-22T08:53:32;94516.41;;;21.16;42.48
11347;BME280;5728;42.722;23.258;2023-04-22T08:55:59;94516.88;;;21.22;41.88
11347;BME280;5728;42.722;23.258;2023-04-22T08:58:27;94522.94;;;19.88;43.02
11347;BME280;5728;42.722;23.258;2023-04-22T09:00:54;94523.34;;;19.81;44.82
11347;BME280;5728;42.722;23.258;2023-04-22T09:03:21;94513.16;;;20.21;44.44
11347;BME280;5728;42.722;23.258;2023-04-22T09:05:50;94501.25;;;20.89;43.76
11347;BME280;5728;42.722;23.258;2023-04-22T09:08:18;94510.63;;;20.79;41.08
11347;BME280;5728;42.722;23.258;2023-04-22T09:10:45;94525.13;;;19.96;42.14
11347;BME280;5728;42.722;23.258;2023-04-22T09:13:12;94512.41;;;19.72;43.08
11347;BME280;5728;42.722;23.258;2023-04-22T09:15:39;94503.88;;;20.46;44.70
11347;BME280;5728;42.722;23.258;2023-04-22T09:18:08;94506.59;;;20.44;41.11
11347;BME280;5728;42.722;23.258;2023-04-22T09:20:35;94501.53;;;20.25;43.15
11347;BME280;5728;42.722;23.258;2023-04-22T09:23:03;94495.31;;;21.16;44.25
11347;BME280;5728;42.722;23.258;2023-04-22T09:25:33;94504.63;;;21.63;42.64
11347;BME280;5728;42.722;23.258;2023-04-22T09:28:00;94496.75;;;20.91;42.25
11347;BME280;5728;42.722;23.258;2023-04-22T09:30:30;94502.88;;;20.32;42.25
11347;BME280;5728;42.722;23.258;2023-04-22T09:32:58;94497.69;;;21.05;40.67
11347;BME280;5728;42.722;23.258;2023-04-22T09:35:26;94497.31;;;21.54;38.26
11347;BME280;5728;42.722;23.258;2023-04-22T09:37:54;94492.41;;;21.48;38.99
11347;BME280;5728;42.722;23.258;2023-04-22T09:40:21;94494.25;;;19.84;40.52
11347;BME280;5728;42.722;23.258;2023-04-22T09:42:50;94494.06;;;20.02;42.06
11347;BME280;5728;42.722;23.258;2023-04-22T09:45:27;94489.50;;;20.51;40.26
11347;BME280;5728;42.722;23.258;2023-04-22T09:47:55;94487.22;;;21.19;40.26
11347;BME280;5728;42.722;23.258;2023-04-22T09:50:24;94479.19;;;21.62;40.93
11347;BME280;5728;42.722;23.258;2023-04-22T09:52:55;94482.28;;;21.55;38.05
11347;BME280;5728;42.722;23.258;2023-04-22T09:55:23;94490.19;;;20.98;38.42
11347;BME280;5728;42.722;23.258;2023-04-22T09:57:53;94485.03;;;21.25;38.28
11347;BME280;5728;42.722;23.258;2023-04-22T10:00:22;94488.34;;;21.43;38.14
11347;BME280;5728;42.722;23.258;2023-04-22T10:02:49;94504.72;;;21.20;37.39
11347;BME280;5728;42.722;23.258;2023-04-22T10:05:16;94480.88;;;20.63;37.59
11347;BME280;5728;42.722;23.258;2023-04-22T10:07:43;94486.88;;;20.51;36.04
11347;BME280;5728;42.722;23.258;2023-04-22T10:10:10;94478.88;;;20.53;35.89
11347;BME280;5728;42.722;23.258;2023-04-22T10:12:38;94478.69;;;20.26;37.05
11347;BME280;5728;42.722;23.258;2023-04-22T10:15:07;94473.84;;;20.64;36.29
11347;BME280;5728;42.722;23.258;2023-04-22T10:17:36;94466.78;;;21.08;36.31
11347;BME280;5728;42.722;23.258;2023-04-22T10:20:07;94471.19;;;21.36;35.44
11347;BME280;5728;42.722;23.258;2023-04-22T10:22:39;94458.28;;;22.00;33.99
11347;BME280;5728;42.722;23.258;2023-04-22T10:25:10;94446.81;;;22.41;33.12
11347;BME280;5728;42.722;23.258;2023-04-22T10:27:37;94461.13;;;22.90;33.64
11347;BME280;5728;42.722;23.258;2023-04-22T10:30:08;94461.34;;;22.87;33.66
11347;BME280;5728;42.722;23.258;2023-04-22T10:32:36;94456.47;;;23.06;35.02
11347;BME280;5728;42.722;23.258;2023-04-22T10:35:07;94469.94;;;23.54;31.80
11347;BME280;5728;42.722;23.258;2023-04-22T10:37:34;94455.00;;;23.15;32.88
11347;BME280;5728;42.722;23.258;2023-04-22T10:40:09;94446.41;;;23.62;31.77
11347;BME280;5728;42.722;23.258;2023-04-22T10:42:38;94457.53;;;23.29;31.15
11347;BME280;5728;42.722;23.258;2023-04-22T10:45:12;94453.53;;;23.61;32.16
11347;BME280;5728;42.722;23.258;2023-04-22T10:47:39;94448.44;;;23.08;32.87
11347;BME280;5728;42.722;23.258;2023-04-22T10:50:21;94441.47;;;23.07;31.95
11347;BME280;5728;42.722;23.258;2023-04-22T10:52:50;94445.06;;;23.31;31.10
11347;BME280;5728;42.722;23.258;2023-04-22T10:55:18;94440.72;;;22.92;31.05
11347;BME280;5728;42.722;23.258;2023-04-22T10:57:46;94451.84;;;23.10;31.49
11347;BME280;5728;42.722;23.258;2023-04-22T11:00:27;94438.91;;;23.68;31.29
11347;BME280;5728;42.722;23.258;2023-04-22T11:03:07;94437.53;;;23.99;31.36
11347;BME280;5728;42.722;23.258;2023-04-22T11:05:35;94432.41;;;24.32;30.50
11347;BME280;5728;42.722;23.258;2023-04-22T11:08:03;94446.84;;;23.92;30.97
11347;BME280;5728;42.722;23.258;2023-04-22T11:10:33;94442.31;;;23.58;31.32
11347;BME280;5728;42.722;23.258;2023-04-22T11:13:02;94443.78;;;23.24;32.78
11347;BME280;5728;42.722;23.258;2023-04-22T11:15:34;94448.69;;;23.42;33.30
11347;BME280;5728;42.722;23.258;2023-04-22T11:18:01;94435.94;;;22.72;34.39
11347;BME280;5728;42.722;23.258;2023-04-22T11:20:28;94446.97;;;23.41;33.37
11347;BME280;5728;42.722;23.258;2023-04-22T11:22:56;94465.06;;;23.22;32.23
11347;BME280;5728;42.722;23.258;2023-04-22T11:25:24;94459.66;;;23.11;32.53
11347;BME280;5728;42.722;23.258;2023-04-22T11:27:52;94463.75;;;22.77;33.69
11347;BME280;5728;42.722;23.258;2023-04-22T11:30:21;94469.03;;;22.11;34.49
11347;BME280;5728;42.722;23.258;2023-04-22T11:32:50;94471.78;;;22.10;36.33
11347;BME280;5728;42.722;23.258;2023-04-22T11:35:18;94476.44;;;22.46;35.23
11347;BME280;5728;42.722;23.258;2023-04-22T11:37:47;94478.16;;;22.20;36.47
11347;BME280;5728;42.722;23.258;2023-04-22T11:40:16;94498.50;;;21.77;36.65
11347;BME280;5728;42.722;23.258;2023-04-22T11:42:44;94502.84;;;21.92;37.24
11347;BME280;5728;42.722;23.258;2023-04-22T11:45:11;94497.47;;;21.37;38.64
11347;BME280;5728;42.722;23.258;2023-04-22T11:47:39;94485.78;;;21.70;37.95
11347;BME280;5728;42.722;23.258;2023-04-22T11:50:09;94493.75;;;22.37;37.53
11347;BME280;5728;42.722;23.258;2023-04-22T11:52:42;94495.78;;;22.19;37.33
11347;BME280;5728;42.722;23.258;2023-04-22T11:55:10;94491.63;;;21.60;38.92
11347;BME280;5728;42.722;23.258;2023-04-22T11:57:37;94496.84;;;22.17;39.22
11347;BME280;5728;42.722;23.258;2023-04-22T12:00:06;94490.78;;;21.60;39.53
11347;BME280;5728;42.722;23.258;2023-04-22T12:02:34;94499.63;;;21.45;40.28
11347;BME280;5728;42.722;23.258;2023-04-22T12:05:01;94497.03;;;21.17;40.54
11347;BME280;5728;42.722;23.258;2023-04-22T12:07:30;94522.31;;;20.75;41.86
11347;BME280;5728;42.722;23.258;2023-04-22T12:09:58;94511.84;;;21.04;42.11
11347;BME280;5728;42.722;23.258;2023-04-22T12:12:26;94515.25;;;21.20;42.13
11347;BME280;5728;42.722;23.258;2023-04-22T12:14:52;94514.47;;;21.04;42.36
11347;BME280;5728;42.722;23.258;2023-04-22T12:17:23;94518.78;;;20.61;42.62
11347;BME280;5728;42.722;23.258;2023-04-22T12:19:53;94512.06;;;20.25;42.69
11347;BME280;5728;42.722;23.258;2023-04-22T12:22:23;94523.06;;;20.48;43.10
11347;BME280;5728;42.722;23.258;2023-04-22T12:24:52;94514.38;;;20.61;42.67
11347;BME280;5728;42.722;23.258;2023-04-22T12:27:19;94517.09;;;20.60;42.85
11347;BME280;5728;42.722;23.258;2023-04-22T12:29:54;94522.00;;;20.66;41.98
11347;BME280;5728;42.722;23.258;2023-04-22T12:32:21;94510.03;;;20.60;42.24
11347;BME280;5728;42.722;23.258;2023-04-22T12:34:48;94522.06;;;19.88;45.08
11347;BME280;5728;42.722;23.258;2023-04-22T12:37:16;94518.97;;;20.58;42.88
11347;BME280;5728;42.722;23.258;2023-04-22T12:39:43;94511.59;;;20.78;43.43
11347;BME280;5728;42.722;23.258;2023-04-22T12:42:11;94500.31;;;20.90;43.12
11347;BME280;5728;42.722;23.258;2023-04-22T12:44:38;94492.66;;;21.30;41.28
11347;BME280;5728;42.722;23.258;2023-04-22T12:47:06;94496.47;;;20.96;41.63
11347;BME280;5728;42.722;23.258;2023-04-22T12:49:34;94518.03;;;20.88;42.72
11347;BME280;5728;42.722;23.258;2023-04-22T12:52:02;94505.19;;;21.12;42.01
11347;BME280;5728;42.722;23.258;2023-04-22T12:54:29;94498.13;;;20.39;40.89
11347;BME280;5728;42.722;23.258;2023-04-22T12:56:56;94497.25;;;20.54;41.23
11347;BME280;5728;42.722;23.258;2023-04-22T12:59:24;94496.38;;;20.97;40.26
11347;BME280;5728;42.722;23.258;2023-04-22T13:01:51;94489.53;;;20.20;40.44
11347;BME280;5728;42.722;23.258;2023-04-22T13:04:19;94491.50;;;20.16;40.34
11347;BME280;5728;42.722;23.258;2023-04-22T13:06:46;94522.53;;;20.86;39.39